sensor_id;sensor_type;location;lat;lon;timestamp;pressure;altitude;pressure_sealevel;temperature;humidity
33265;BME280;31404;53.974;-1.086;2022-09-24T00:00:35;101584.54;;;11.41;76.37
33265;BME280;31404;53.974;-1.086;2022-09-24T00:05:36;101582.69;;;13.40;70.22
33265;BME280;31404;53.974;-1.086;2022-09-24T00:10:36;101579.37;;;12.05;75.15
33265;BME280;31404;53.974;-1.086;2022-09-24T00:15:35;101579.95;;;12.38;72.79
33265;BME280;31404;53.974;-1.086;2022-09-24T00:20:35;101584.31;;;10.74;79.03
33265;BME280;31404;53.974;-1.086;2022-09-24T00:30:36;101586.89;;;10.23;85.39
33265;BME280;31404;53.974;-1.086;2022-09-24T00:35:36;101591.42;;;9.85;85.54
33265;BME280;31404;53.974;-1.086;2022-09-24T00:40:36;101585.55;;;7.82;97.51
33265;BME280;31404;53.974;-1.086;2022-09-24T00:45:34;101585.83;;;7.85;97.91
33265;BME280;31404;53.974;-1.086;2022-09-24T00:50:35;101588.30;;;9.20;91.59
33265;BME280;31404;53.974;-1.086;2022-09-24T00:55:36;101582.39;;;10.57;84.71
33265;BME280;31404;53.974;-1.086;2022-09-24T01:00:36;101584.81;;;8.13;95.36
33265;BME280;31404;53.974;-1.086;2022-09-24T01:05:35;101587.53;;;7.95;99.34
33265;BME280;31404;53.974;-1.086;2022-09-24T01:30:37;101579.31;;;7.76;100.00
33265;BME280;31404;53.974;-1.086;2022-09-24T01:35:37;101577.52;;;9.04;96.57
33265;BME280;31404;53.974;-1.086;2022-09-24T01:40:35;101575.75;;;8.32;98.83
33265;BME280;31404;53.974;-1.086;2022-09-24T01:45:36;101582.78;;;7.44;100.00
33265;BME280;31404;53.974;-1.086;2022-09-24T02:00:38;101594.23;;;5.55;100.00
33265;BME280;31404;53.974;-1.086;2022-09-24T02:10:39;101584.19;;;7.05;100.00
33265;BME280;31404;53.974;-1.086;2022-09-24T02:20:36;101588.80;;;4.94;100.00
33265;BME280;31404;53.974;-1.086;2022-09-24T02:25:38;101582.68;;;6.12;100.00
33265;BME280;31404;53.974;-1.086;2022-09-24T02:35:34;101574.06;;;6.53;100.00
33265;BME280;31404;53.974;-1.086;2022-09-24T02:40:34;101576.30;;;7.98;100.00
33265;BME280;31404;53.974;-1.086;2022-09-24T02:45:34;101576.64;;;9.40;93.71
33265;BME280;31404;53.974;-1.086;2022-09-24T02:50:34;101566.87;;;10.39;91.11
33265;BME280;31404;53.974;-1.086;2022-09-24T02:55:34;101573.22;;;8.67;96.97
33265;BME280;31404;53.974;-1.086;2022-09-24T03:00:35;101568.46;;;10.22;90.05
33265;BME280;31404;53.974;-1.086;2022-09-24T03:05:35;101569.47;;;11.37;86.15
33265;BME280;31404;53.974;-1.086;2022-09-24T03:10:35;101572.69;;;10.78;86.52
33265;BME280;31404;53.974;-1.086;2022-09-24T03:15:35;101573.94;;;10.71;88.88
33265;BME280;31404;53.974;-1.086;2022-09-24T03:20:34;101574.34;;;10.36;89.72
33265;BME280;31404;53.974;-1.086;2022-09-24T03:25:34;101580.78;;;9.05;96.10
33265;BME280;31404;53.974;-1.086;2022-09-24T03:30:35;101574.08;;;10.52;90.67
33265;BME280;31404;53.974;-1.086;2022-09-24T03:35:35;101576.19;;;10.35;89.31
33265;BME280;31404;53.974;-1.086;2022-09-24T03:40:35;101588.66;;;10.60;89.41
33265;BME280;31404;53.974;-1.086;2022-09-24T03:45:35;101590.98;;;10.47;89.56
33265;BME280;31404;53.974;-1.086;2022-09-24T03:50:35;101596.45;;;11.39;85.30
33265;BME280;31404;53.974;-1.086;2022-09-24T03:55:34;101602.63;;;9.60;91.19
33265;BME280;31404;53.974;-1.086;2022-09-24T04:00:35;101593.38;;;11.82;84.41
33265;BME280;31404;53.974;-1.086;2022-09-24T04:05:35;101596.47;;;10.59;88.38
33265;BME280;31404;53.974;-1.086;2022-09-24T04:10:34;101602.51;;;9.45;90.98
33265;BME280;31404;53.974;-1.086;2022-09-24T04:15:35;101600.30;;;10.51;89.12
33265;BME280;31404;53.974;-1.086;2022-09-24T04:20:35;101605.22;;;10.79;85.45
33265;BME280;31404;53.974;-1.086;2022-09-24T04:25:35;101606.18;;;10.79;87.76
33265;BME280;31404;53.974;-1.086;2022-09-24T04:30:37;101604.86;;;11.62;83.91
33265;BME280;31404;53.974;-1.086;2022-09-24T04:35:35;101606.05;;;11.95;81.38
33265;BME280;31404;53.974;-1.086;2022-09-24T04:40:34;101608.14;;;12.06;81.12
33265;BME280;31404;53.974;-1.086;2022-09-24T04:45:36;101614.41;;;11.17;80.98
33265;BME280;31404;53.974;-1.086;2022-09-24T04:50:35;101614.67;;;11.45;80.75
33265;BME280;31404;53.974;-1.086;2022-09-24T04:55:34;101622.74;;;11.26;82.72
33265;BME280;31404;53.974;-1.086;2022-09-24T05:00:34;101626.14;;;10.47;86.51
33265;BME280;31404;53.974;-1.086;2022-09-24T05:05:36;101628.49;;;10.63;85.38
33265;BME280;31404;53.974;-1.086;2022-09-24T05:10:34;101634.87;;;10.97;82.33
33265;BME280;31404;53.974;-1.086;2022-09-24T05:15:34;101633.27;;;10.66;83.83
33265;BME280;31404;53.974;-1.086;2022-09-24T05:25:38;101644.61;;;11.52;78.64
33265;BME280;31404;53.974;-1.086;2022-09-24T05:30:37;101649.78;;;10.96;81.64
33265;BME280;31404;53.974;-1.086;2022-09-24T05:35:34;101654.39;;;11.10;80.14
33265;BME280;31404;53.974;-1.086;2022-09-24T05:40:34;101655.74;;;10.03;86.01
33265;BME280;31404;53.974;-1.086;2022-09-24T05:45:34;101651.52;;;10.70;83.26
33265;BME280;31404;53.974;-1.086;2022-09-24T05:50:34;101666.50;;;10.07;86.08
33265;BME280;31404;53.974;-1.086;2022-09-24T05:55:34;101672.50;;;10.44;84.19
33265;BME280;31404;53.974;-1.086;2022-09-24T06:00:34;101679.57;;;10.36;82.72
33265;BME280;31404;53.974;-1.086;2022-09-24T06:05:34;101684.83;;;10.66;83.40
33265;BME280;31404;53.974;-1.086;2022-09-24T06:10:35;101684.60;;;9.35;87.31
33265;BME280;31404;53.974;-1.086;2022-09-24T06:15:35;101688.62;;;9.15;89.00
33265;BME280;31404;53.974;-1.086;2022-09-24T06:20:35;101687.82;;;9.68;88.60
33265;BME280;31404;53.974;-1.086;2022-09-24T06:25:35;101695.19;;;10.20;84.91
33265;BME280;31404;53.974;-1.086;2022-09-24T06:30:38;101691.37;;;10.90;83.21
33265;BME280;31404;53.974;-1.086;2022-09-24T06:35:34;101704.18;;;10.10;83.87
33265;BME280;31404;53.974;-1.086;2022-09-24T06:40:35;101712.30;;;10.57;82.88
33265;BME280;31404;53.974;-1.086;2022-09-24T06:45:35;101723.54;;;8.37;91.70
33265;BME280;31404;53.974;-1.086;2022-09-24T06:50:34;101723.12;;;10.22;86.83
33265;BME280;31404;53.974;-1.086;2022-09-24T06:55:34;101722.85;;;10.76;84.74
33265;BME280;31404;53.974;-1.086;2022-09-24T07:00:36;101732.30;;;10.19;87.01
33265;BME280;31404;53.974;-1.086;2022-09-24T07:05:34;101738.79;;;11.03;83.72
33265;BME280;31404;53.974;-1.086;2022-09-24T07:10:34;101746.15;;;10.89;82.80
33265;BME280;31404;53.974;-1.086;2022-09-24T07:15:35;101751.37;;;11.29;82.25
33265;BME280;31404;53.974;-1.086;2022-09-24T07:20:35;101760.06;;;9.43;89.13
33265;BME280;31404;53.974;-1.086;2022-09-24T07:25:34;101764.84;;;8.65;93.65
33265;BME280;31404;53.974;-1.086;2022-09-24T07:30:36;101764.66;;;8.50;96.19
33265;BME280;31404;53.974;-1.086;2022-09-24T07:35:37;101758.11;;;9.54;90.09
33265;BME280;31404;53.974;-1.086;2022-09-24T07:40:35;101764.70;;;8.98;93.34
33265;BME280;31404;53.974;-1.086;2022-09-24T07:50:39;101761.32;;;9.27;93.20
33265;BME280;31404;53.974;-1.086;2022-09-24T07:55:35;101768.57;;;9.81;91.51
33265;BME280;31404;53.974;-1.086;2022-09-24T08:00:35;101776.81;;;8.72;97.34
33265;BME280;31404;53.974;-1.086;2022-09-24T08:05:36;101777.43;;;10.56;90.01
33265;BME280;31404;53.974;-1.086;2022-09-24T08:10:35;101774.05;;;10.05;91.51
33265;BME280;31404;53.974;-1.086;2022-09-24T08:15:35;101780.14;;;10.77;89.63
33265;BME280;31404;53.974;-1.086;2022-09-24T08:20:36;101777.08;;;10.52;91.33
33265;BME280;31404;53.974;-1.086;2022-09-24T08:25:34;101781.72;;;11.27;89.32
33265;BME280;31404;53.974;-1.086;2022-09-24T08:30:35;101787.56;;;10.98;90.53
33265;BME280;31404;53.974;-1.086;2022-09-24T08:35:35;101791.14;;;11.25;90.04
33265;BME280;31404;53.974;-1.086;2022-09-24T08:40:38;101793.26;;;10.22;94.91
33265;BME280;31404;53.974;-1.086;2022-09-24T08:50:35;101805.70;;;10.29;95.56
33265;BME280;31404;53.974;-1.086;2022-09-24T08:55:38;101800.46;;;11.49;90.55
33265;BME280;31404;53.974;-1.086;2022-09-24T09:10:36;101821.70;;;12.45;86.83
33265;BME280;31404;53.974;-1.086;2022-09-24T09:20:37;101835.64;;;10.63;92.58
33265;BME280;31404;53.974;-1.086;2022-09-24T09:25:35;101842.43;;;11.28;88.38
33265;BME280;31404;53.974;-1.086;2022-09-24T09:40:38;101858.26;;;10.86;92.60
33265;BME280;31404;53.974;-1.086;2022-09-24T09:50:38;101856.80;;;12.01;88.07
33265;BME280;31404;53.974;-1.086;2022-09-24T09:55:36;101863.14;;;11.29;89.95
33265;BME280;31404;53.974;-1.086;2022-09-24T10:00:34;101860.23;;;12.26;85.81
33265;BME280;31404;53.974;-1.086;2022-09-24T10:05:35;101857.27;;;11.96;86.84
33265;BME280;31404;53.974;-1.086;2022-09-24T10:10:35;101854.01;;;12.51;85.26
33265;BME280;31404;53.974;-1.086;2022-09-24T10:20:35;101863.66;;;11.90;82.68
33265;BME280;31404;53.974;-1.086;2022-09-24T10:25:34;101873.50;;;12.22;82.44
33265;BME280;31404;53.974;-1.086;2022-09-24T10:30:34;101877.78;;;11.35;88.14
33265;BME280;31404;53.974;-1.086;2022-09-24T10:35:36;101869.91;;;12.27;84.43
33265;BME280;31404;53.974;-1.086;2022-09-24T11:00:39;101906.95;;;11.99;81.17
33265;BME280;31404;53.974;-1.086;2022-09-24T11:05:37;101905.46;;;12.83;80.16
33265;BME280;31404;53.974;-1.086;2022-09-24T11:20:36;101927.65;;;10.98;89.59
33265;BME280;31404;53.974;-1.086;2022-09-24T11:25:39;101920.62;;;10.86;89.67
33265;BME280;31404;53.974;-1.086;2022-09-24T12:00:37;101946.11;;;10.28;92.23
33265;BME280;31404;53.974;-1.086;2022-09-24T12:10:38;101955.73;;;10.93;82.57
33265;BME280;31404;53.974;-1.086;2022-09-24T12:25:39;101978.09;;;11.94;79.59
33265;BME280;31404;53.974;-1.086;2022-09-24T12:30:39;101987.91;;;11.69;84.25
33265;BME280;31404;53.974;-1.086;2022-09-24T12:45:35;101983.70;;;11.83;88.55
33265;BME280;31404;53.974;-1.086;2022-09-24T12:50:39;101976.36;;;12.65;83.82
33265;BME280;31404;53.974;-1.086;2022-09-24T12:55:35;101978.59;;;12.37;87.48
33265;BME280;31404;53.974;-1.086;2022-09-24T13:00:38;101975.47;;;13.05;86.10
33265;BME280;31404;53.974;-1.086;2022-09-24T13:10:35;101974.02;;;12.85;90.20
33265;BME280;31404;53.974;-1.086;2022-09-24T13:15:36;101971.69;;;12.80;91.33
33265;BME280;31404;53.974;-1.086;2022-09-24T13:20:35;101968.92;;;13.21;87.04
33265;BME280;31404;53.974;-1.086;2022-09-24T13:25:34;101968.80;;;11.23;95.49
33265;BME280;31404;53.974;-1.086;2022-09-24T13:30:37;101968.06;;;12.28;87.73
33265;BME280;31404;53.974;-1.086;2022-09-24T13:40:37;101962.31;;;13.17;86.69
33265;BME280;31404;53.974;-1.086;2022-09-24T13:45:37;101963.29;;;14.24;80.62
33265;BME280;31404;53.974;-1.086;2022-09-24T13:50:36;101969.55;;;13.69;78.40
33265;BME280;31404;53.974;-1.086;2022-09-24T14:00:36;101970.05;;;12.26;81.67
33265;BME280;31404;53.974;-1.086;2022-09-24T14:05:35;101976.40;;;11.71;84.22
33265;BME280;31404;53.974;-1.086;2022-09-24T14:10:35;101969.30;;;13.02;79.10
33265;BME280;31404;53.974;-1.086;2022-09-24T14:15:35;101969.44;;;13.41;78.41
33265;BME280;31404;53.974;-1.086;2022-09-24T14:20:35;101968.34;;;12.93;79.68
33265;BME280;31404;53.974;-1.086;2022-09-24T14:25:36;101974.48;;;12.65;77.21
33265;BME280;31404;53.974;-1.086;2022-09-24T14:30:37;101977.18;;;13.04;75.90
33265;BME280;31404;53.974;-1.086;2022-09-24T14:35:36;101991.43;;;12.29;79.67
33265;BME280;31404;53.974;-1.086;2022-09-24T14:45:36;101989.16;;;12.64;78.61
33265;BME280;31404;53.974;-1.086;2022-09-24T14:50:38;101989.24;;;13.05;76.21
33265;BME280;31404;53.974;-1.086;2022-09-24T14:55:36;101987.78;;;13.01;77.56
33265;BME280;31404;53.974;-1.086;2022-09-24T15:00:44;101990.45;;;12.85;78.21
33265;BME280;31404;53.974;-1.086;2022-09-24T15:05:35;101985.96;;;13.02;77.93
33265;BME280;31404;53.974;-1.086;2022-09-24T15:10:35;101985.30;;;13.32;77.15
33265;BME280;31404;53.974;-1.086;2022-09-24T15:15:35;101989.29;;;13.05;78.63
33265;BME280;31404;53.974;-1.086;2022-09-24T15:20:36;101995.68;;;12.28;79.75
33265;BME280;31404;53.974;-1.086;2022-09-24T15:25:35;101989.58;;;13.30;75.27
33265;BME280;31404;53.974;-1.086;2022-09-24T15:30:36;101989.41;;;13.37;71.60
33265;BME280;31404;53.974;-1.086;2022-09-24T15:35:35;101988.71;;;12.11;76.28
33265;BME280;31404;53.974;-1.086;2022-09-24T15:40:35;101983.47;;;12.55;74.06
33265;BME280;31404;53.974;-1.086;2022-09-24T15:45:35;101984.11;;;13.42;71.38
33265;BME280;31404;53.974;-1.086;2022-09-24T15:50:37;101987.19;;;12.45;72.82
33265;BME280;31404;53.974;-1.086;2022-09-24T15:55:35;101988.86;;;13.53;70.87
33265;BME280;31404;53.974;-1.086;2022-09-24T16:00:34;101997.09;;;12.48;72.71
33265;BME280;31404;53.974;-1.086;2022-09-24T16:05:35;102005.59;;;11.37;78.13
33265;BME280;31404;53.974;-1.086;2022-09-24T16:10:34;102010.68;;;12.17;76.21
33265;BME280;31404;53.974;-1.086;2022-09-24T16:15:35;102017.83;;;12.45;74.55
33265;BME280;31404;53.974;-1.086;2022-09-24T16:20:37;102026.80;;;11.73;74.94
33265;BME280;31404;53.974;-1.086;2022-09-24T16:25:34;102020.88;;;13.11;70.94
33265;BME280;31404;53.974;-1.086;2022-09-24T16:30:36;102024.93;;;12.80;73.48
33265;BME280;31404;53.974;-1.086;2022-09-24T16:35:35;102037.88;;;12.36;72.16
33265;BME280;31404;53.974;-1.086;2022-09-24T16:40:35;102050.18;;;12.33;73.21
33265;BME280;31404;53.974;-1.086;2022-09-24T16:45:35;102049.40;;;12.60;72.94
33265;BME280;31404;53.974;-1.086;2022-09-24T16:50:35;102050.81;;;12.83;72.90
33265;BME280;31404;53.974;-1.086;2022-09-24T16:55:35;102048.45;;;13.38;70.86
33265;BME280;31404;53.974;-1.086;2022-09-24T17:00:35;102042.96;;;13.89;69.07
33265;BME280;31404;53.974;-1.086;2022-09-24T17:10:34;102055.58;;;12.88;71.42
33265;BME280;31404;53.974;-1.086;2022-09-24T17:15:34;102057.08;;;11.41;75.71
33265;BME280;31404;53.974;-1.086;2022-09-24T17:20:35;102063.05;;;11.43;75.45
33265;BME280;31404;53.974;-1.086;2022-09-24T17:25:35;102063.78;;;11.90;74.39
33265;BME280;31404;53.974;-1.086;2022-09-24T17:30:36;102067.83;;;11.63;76.23
33265;BME280;31404;53.974;-1.086;2022-09-24T17:35:35;102074.65;;;10.98;79.20
33265;BME280;31404;53.974;-1.086;2022-09-24T17:40:34;102075.56;;;11.44;78.66
33265;BME280;31404;53.974;-1.086;2022-09-24T17:45:35;102077.40;;;11.66;79.69
33265;BME280;31404;53.974;-1.086;2022-09-24T17:50:34;102082.50;;;12.29;76.38
33265;BME280;31404;53.974;-1.086;2022-09-24T17:55:35;102087.11;;;11.41;80.39
33265;BME280;31404;53.974;-1.086;2022-09-24T18:05:35;102084.37;;;14.32;70.84
33265;BME280;31404;53.974;-1.086;2022-09-24T18:10:35;102090.92;;;14.49;69.70
33265;BME280;31404;53.974;-1.086;2022-09-24T18:15:35;102095.89;;;14.46;70.34
33265;BME280;31404;53.974;-1.086;2022-09-24T18:20:35;102095.42;;;15.22;67.77
33265;BME280;31404;53.974;-1.086;2022-09-24T18:25:35;102111.46;;;14.92;66.94
33265;BME280;31404;53.974;-1.086;2022-09-24T18:30:35;102109.16;;;15.98;64.32
33265;BME280;31404;53.974;-1.086;2022-09-24T18:35:35;102118.99;;;14.59;66.99
33265;BME280;31404;53.974;-1.086;2022-09-24T18:40:36;102122.47;;;14.28;69.12
33265;BME280;31404;53.974;-1.086;2022-09-24T18:45:35;102121.33;;;13.85;69.17
33265;BME280;31404;53.974;-1.086;2022-09-24T18:55:37;102132.44;;;13.54;71.06
33265;BME280;31404;53.974;-1.086;2022-09-24T19:00:35;102135.88;;;13.20;71.68
33265;BME280;31404;53.974;-1.086;2022-09-24T19:05:35;102141.48;;;12.92;73.82
33265;BME280;31404;53.974;-1.086;2022-09-24T19:10:35;102141.72;;;12.68;73.01
33265;BME280;31404;53.974;-1.086;2022-09-24T19:20:35;102141.95;;;13.31;72.26
33265;BME280;31404;53.974;-1.086;2022-09-24T19:25:36;102140.11;;;13.75;70.63
33265;BME280;31404;53.974;-1.086;2022-09-24T19:30:37;102140.47;;;14.57;68.28
33265;BME280;31404;53.974;-1.086;2022-09-24T19:35:35;102143.82;;;14.23;69.21
33265;BME280;31404;53.974;-1.086;2022-09-24T19:40:34;102142.99;;;13.87;69.67
33265;BME280;31404;53.974;-1.086;2022-09-24T19:45:35;102145.25;;;14.03;69.66
33265;BME280;31404;53.974;-1.086;2022-09-24T19:50:36;102148.37;;;14.21;69.02
33265;BME280;31404;53.974;-1.086;2022-09-24T19:55:34;102155.33;;;13.04;72.76
33265;BME280;31404;53.974;-1.086;2022-09-24T20:00:36;102152.19;;;13.80;69.09
33265;BME280;31404;53.974;-1.086;2022-09-24T20:05:34;102160.32;;;12.40;76.30
33265;BME280;31404;53.974;-1.086;2022-09-24T20:10:35;102163.50;;;12.02;78.31
33265;BME280;31404;53.974;-1.086;2022-09-24T20:15:35;102171.20;;;11.45;80.27
33265;BME280;31404;53.974;-1.086;2022-09-24T20:20:35;102167.81;;;12.46;76.30
33265;BME280;31404;53.974;-1.086;2022-09-24T20:25:35;102165.14;;;12.03;78.54
33265;BME280;31404;53.974;-1.086;2022-09-24T20:30:35;102164.37;;;11.85;79.89
33265;BME280;31404;53.974;-1.086;2022-09-24T20:35:32;102164.85;;;11.04;83.44
33265;BME280;31404;53.974;-1.086;2022-09-24T20:40:37;102163.27;;;12.57;77.27
33265;BME280;31404;53.974;-1.086;2022-09-24T20:50:34;102170.78;;;10.13;85.45
33265;BME280;31404;53.974;-1.086;2022-09-24T20:55:34;102172.76;;;10.11;85.11
33265;BME280;31404;53.974;-1.086;2022-09-24T21:00:37;102169.46;;;11.11;84.27
33265;BME280;31404;53.974;-1.086;2022-09-24T21:05:34;102163.89;;;11.85;80.14
33265;BME280;31404;53.974;-1.086;2022-09-24T21:10:34;102162.55;;;11.40;81.41
33265;BME280;31404;53.974;-1.086;2022-09-24T21:15:34;102165.87;;;10.77;86.16
33265;BME280;31404;53.974;-1.086;2022-09-24T21:20:35;102160.41;;;11.44;81.55
33265;BME280;31404;53.974;-1.086;2022-09-24T21:25:35;102155.38;;;12.48;77.39
33265;BME280;31404;53.974;-1.086;2022-09-24T21:30:35;102150.75;;;10.37;83.19
33265;BME280;31404;53.974;-1.086;2022-09-24T21:35:35;102154.90;;;10.85;84.09
33265;BME280;31404;53.974;-1.086;2022-09-24T21:40:35;102153.67;;;11.13;82.70
33265;BME280;31404;53.974;-1.086;2022-09-24T21:45:35;102163.01;;;9.10;89.28
33265;BME280;31404;53.974;-1.086;2022-09-24T21:50:35;102163.09;;;8.34;93.29
33265;BME280;31404;53.974;-1.086;2022-09-24T21:55:35;102169.85;;;8.77;93.19
33265;BME280;31404;53.974;-1.086;2022-09-24T22:00:34;102158.06;;;10.02;87.78
33265;BME280;31404;53.974;-1.086;2022-09-24T22:05:35;102162.34;;;8.04;95.02
33265;BME280;31404;53.974;-1.086;2022-09-24T22:10:35;102171.53;;;7.26;99.24
33265;BME280;31404;53.974;-1.086;2022-09-24T22:15:35;102168.41;;;8.92;89.80
33265;BME280;31404;53.974;-1.086;2022-09-24T22:25:34;102159.85;;;9.23;91.21
33265;BME280;31404;53.974;-1.086;2022-09-24T22:30:34;102157.10;;;9.14;93.01
33265;BME280;31404;53.974;-1.086;2022-09-24T22:35:35;102154.02;;;9.19;89.78
33265;BME280;31404;53.974;-1.086;2022-09-24T22:40:35;102147.36;;;9.73;85.70
33265;BME280;31404;53.974;-1.086;2022-09-24T22:45:35;102148.34;;;9.71;86.31
33265;BME280;31404;53.974;-1.086;2022-09-24T22:50:35;102168.68;;;8.92;89.25
33265;BME280;31404;53.974;-1.086;2022-09-24T22:55:35;102168.45;;;8.78;91.46
33265;BME280;31404;53.974;-1.086;2022-09-24T23:00:36;102169.83;;;7.81;96.92
33265;BME280;31404;53.974;-1.086;2022-09-24T23:05:35;102169.77;;;8.77;91.72
33265;BME280;31404;53.974;-1.086;2022-09-24T23:10:34;102170.72;;;8.45;91.58
33265;BME280;31404;53.974;-1.086;2022-09-24T23:15:35;102174.63;;;9.87;86.57
33265;BME280;31404;53.974;-1.086;2022-09-24T23:20:36;102176.43;;;9.88;83.35
33265;BME280;31404;53.974;-1.086;2022-09-24T23:25:35;102177.15;;;7.01;98.34
33265;BME280;31404;53.974;-1.086;2022-09-24T23:30:34;102175.67;;;6.96;99.20
33265;BME280;31404;53.974;-1.086;2022-09-24T23:35:34;102174.48;;;7.44;98.66
33265;BME280;31404;53.974;-1.086;2022-09-24T23:40:35;102168.28;;;7.38;95.86
33265;BME280;31404;53.974;-1.086;2022-09-24T23:45:35;102166.60;;;7.13;98.47
33265;BME280;31404;53.974;-1.086;2022-09-24T23:50:35;102165.99;;;8.06;94.60
33265;BME280;31404;53.974;-1.086;2022-09-24T23:55:36;102166.30;;;5.61;100.00
